createdAt,value
2019-05-11T00:03:02.365Z,100867.57
2019-05-11T00:05:30.609Z,100870.60
2019-05-11T00:07:58.882Z,100867.57
2019-05-11T00:10:27.147Z,100867.16
2019-05-11T00:12:55.435Z,100872.13
2019-05-11T00:15:23.684Z,100867.77
2019-05-11T00:17:51.984Z,100872.05
2019-05-11T00:20:20.240Z,100865.81
2019-05-11T00:22:48.521Z,100863.31
2019-05-11T00:25:16.860Z,100867.58
2019-05-11T00:27:45.139Z,100863.54
2019-05-11T00:30:13.481Z,100858.66
2019-05-11T00:32:41.836Z,100863.69
2019-05-11T00:35:10.157Z,100863.41
2019-05-11T00:37:38.424Z,100866.47
2019-05-11T00:40:14.576Z,100863.96
2019-05-11T00:42:36.729Z,100864.73
2019-05-11T00:45:45.026Z,100865.70
2019-05-11T00:48:13.299Z,100861.92
2019-05-11T00:50:41.579Z,100856.05
2019-05-11T00:53:09.841Z,100856.53
2019-05-11T00:55:57.470Z,100849.14
2019-05-11T00:58:25.740Z,100849.14
2019-05-11T01:00:54.922Z,100850.60
2019-05-11T01:03:23.155Z,100850.97
2019-05-11T01:05:51.448Z,100847.37
2019-05-11T01:08:19.711Z,100850.53
2019-05-11T01:10:47.977Z,100854.33
2019-05-11T01:13:16.248Z,100839.98
2019-05-11T01:15:44.519Z,100837.91
2019-05-11T01:18:42.823Z,100834.17
2019-05-11T01:21:11.100Z,100834.17
2019-05-11T01:23:39.814Z,100840.97
2019-05-11T01:26:08.090Z,100837.88
2019-05-11T01:28:36.359Z,100844.31
2019-05-11T01:31:04.625Z,100842.09
2019-05-11T01:33:32.884Z,100840.52
2019-05-11T01:36:01.226Z,100839.73
2019-05-11T01:38:29.494Z,100835.14
2019-05-11T01:40:59.208Z,100831.27
2019-05-11T01:43:39.965Z,100831.45
2019-05-11T01:46:08.231Z,100835.14
2019-05-11T01:48:36.504Z,100837.82
2019-05-11T01:51:04.788Z,100844.78
2019-05-11T01:53:33.058Z,100836.19
2019-05-11T01:59:02.920Z,100859.52
2019-05-11T02:01:31.194Z,100852.43
2019-05-11T02:03:59.479Z,100846.23
2019-05-11T02:06:27.775Z,100839.11
2019-05-11T02:08:56.038Z,100835.23
2019-05-11T02:11:24.310Z,100835.07
2019-05-11T02:13:52.592Z,100837.67
2019-05-11T02:16:20.870Z,100832.31
2019-05-11T02:18:49.148Z,100830.91
2019-05-11T02:21:17.408Z,100824.39
2019-05-11T02:23:45.678Z,100822.72
2019-05-11T02:26:13.944Z,100822.34
2019-05-11T02:28:42.224Z,100824.75
2019-05-11T02:31:10.491Z,100821.02
2019-05-11T02:33:38.756Z,100830.84
2019-05-11T02:36:07.030Z,100825.97
2019-05-11T02:38:35.307Z,100837.65
2019-05-11T02:41:03.576Z,100836.30
2019-05-11T02:43:31.849Z,100842.81
2019-05-11T02:46:00.130Z,100849.47
2019-05-11T02:48:28.415Z,100848.50
2019-05-11T02:51:36.741Z,100846.86
2019-05-11T02:54:05.083Z,100851.14
2019-05-11T02:56:33.357Z,100854.81
2019-05-11T02:59:01.625Z,100847.64
2019-05-11T03:01:29.899Z,100850.23
2019-05-11T03:03:58.182Z,100854.70
2019-05-11T03:06:26.448Z,100863.68
2019-05-11T03:08:54.710Z,100861.19
2019-05-11T03:11:22.990Z,100857.51
2019-05-11T03:13:51.248Z,100859.55
2019-05-11T03:16:19.514Z,100861.13
2019-05-11T03:18:47.796Z,100857.10
2019-05-11T03:21:16.081Z,100856.63
2019-05-11T03:23:44.431Z,100852.05
2019-05-11T03:26:12.708Z,100852.39
2019-05-11T03:28:40.986Z,100857.01
2019-05-11T03:31:09.342Z,100853.69
2019-05-11T03:33:38.273Z,100855.67
2019-05-11T03:36:06.551Z,100858.63
2019-05-11T03:38:34.831Z,100862.31
2019-05-11T03:41:03.192Z,100861.90
2019-05-11T03:43:31.461Z,100861.06
2019-05-11T03:45:59.741Z,100862.27
2019-05-11T03:48:28.020Z,100857.72
2019-05-11T03:50:56.344Z,100869.24
2019-05-11T03:53:24.613Z,100865.84
2019-05-11T03:55:52.883Z,100865.61
2019-05-11T03:58:25.453Z,100874.91
2019-05-11T04:00:51.136Z,100875.98
2019-05-11T04:03:19.427Z,100869.86
2019-05-11T04:05:47.713Z,100875.88
2019-05-11T04:08:15.985Z,100872.41
2019-05-11T04:10:44.263Z,100881.09
2019-05-11T04:13:12.531Z,100885.31
2019-05-11T04:15:40.812Z,100893.39
2019-05-11T04:18:09.083Z,100895.42
2019-05-11T04:20:37.364Z,100893.48
2019-05-11T04:23:05.643Z,100901.45
2019-05-11T04:25:33.910Z,100906.72
2019-05-11T04:28:02.206Z,100905.24
2019-05-11T04:30:30.463Z,100906.59
2019-05-11T04:32:58.744Z,100906.56
2019-05-11T04:35:27.035Z,100904.05
2019-05-11T04:37:55.278Z,100903.77
2019-05-11T04:40:23.556Z,100895.13
2019-05-11T04:42:55.608Z,100894.78
2019-05-11T04:45:21.821Z,100893.55
2019-05-11T04:47:50.097Z,100884.77
2019-05-11T04:50:18.380Z,100887.33
2019-05-11T04:52:46.644Z,100887.23
2019-05-11T04:55:14.908Z,100883.77
2019-05-11T04:57:43.186Z,100890.71
2019-05-11T05:00:45.312Z,100898.09
2019-05-11T05:03:13.572Z,100900.77
2019-05-11T05:05:41.855Z,100900.96
2019-05-11T05:08:10.221Z,100904.22
2019-05-11T05:10:38.499Z,100906.11
2019-05-11T05:13:10.692Z,100909.28
2019-05-11T05:15:36.772Z,100907.20
2019-05-11T05:18:05.050Z,100914.38
2019-05-11T05:20:33.338Z,100915.69
2019-05-11T05:23:01.619Z,100912.34
2019-05-11T05:25:29.887Z,100921.92
2019-05-11T05:27:58.170Z,100921.20
2019-05-11T05:30:26.443Z,100925.53
2019-05-11T05:32:54.716Z,100926.38
2019-05-11T05:35:22.996Z,100927.80
2019-05-11T05:37:51.286Z,100929.30
2019-05-11T05:40:19.554Z,100922.65
2019-05-11T05:42:47.840Z,100925.16
2019-05-11T05:45:16.108Z,100920.75
2019-05-11T05:47:44.462Z,100919.11
2019-05-11T05:50:12.836Z,100919.75
2019-05-11T05:52:41.114Z,100921.72
2019-05-11T05:55:09.463Z,100924.27
2019-05-11T05:57:37.727Z,100926.64
2019-05-11T06:00:46.034Z,100936.70
2019-05-11T06:03:48.718Z,100939.88
2019-05-11T06:06:16.982Z,100947.82
2019-05-11T06:08:45.281Z,100944.72
2019-05-11T06:11:13.510Z,100958.67
2019-05-11T06:13:45.529Z,100964.78
2019-05-11T06:16:12.607Z,100973.37
2019-05-11T06:18:40.869Z,100982.52
2019-05-11T06:21:09.133Z,100988.20
2019-05-11T06:23:38.187Z,100984.47
2019-05-11T06:26:06.458Z,100992.42
2019-05-11T06:28:34.728Z,100989.92
2019-05-11T06:31:03.034Z,100994.11
2019-05-11T06:33:31.283Z,100994.52
2019-05-11T06:35:59.541Z,100999.25
2019-05-11T06:38:27.813Z,100996.42
2019-05-11T06:40:56.092Z,100998.89
2019-05-11T06:43:24.361Z,101001.47
2019-05-11T06:45:52.634Z,100999.53
2019-05-11T06:48:20.901Z,100999.53
2019-05-11T06:50:49.256Z,100996.98
2019-05-11T06:53:17.517Z,101007.01
2019-05-11T06:55:45.774Z,101005.40
2019-05-11T06:58:14.053Z,101007.03
2019-05-11T07:00:42.388Z,101001.94
2019-05-11T07:03:10.644Z,101004.80
2019-05-11T07:05:38.923Z,101003.75
2019-05-11T07:08:07.186Z,101001.99
2019-05-11T07:10:35.465Z,101001.58
2019-05-11T07:13:03.737Z,100999.76
2019-05-11T07:15:32.014Z,101010.34
2019-05-11T07:18:00.289Z,101007.28
2019-05-11T07:20:28.550Z,101009.84
2019-05-11T07:22:56.822Z,101007.43
2019-05-11T07:25:25.097Z,101022.56
2019-05-11T07:27:53.735Z,101018.89
2019-05-11T07:30:22.002Z,101021.00
2019-05-11T07:32:50.311Z,101019.27
2019-05-11T07:35:18.912Z,101008.07
2019-05-11T07:37:48.592Z,101016.17
2019-05-11T07:40:38.378Z,101011.77
2019-05-11T07:43:19.060Z,101007.25
2019-05-11T07:45:48.025Z,101007.25
2019-05-11T07:48:18.655Z,101009.24
2019-05-11T07:50:48.036Z,101012.92
2019-05-11T07:53:18.649Z,101012.45
2019-05-11T07:55:48.498Z,101021.33
2019-05-11T07:58:20.435Z,101016.33
2019-05-11T08:00:48.836Z,101018.28
2019-05-11T08:03:18.071Z,101020.23
2019-05-11T08:05:47.967Z,101014.17
2019-05-11T08:08:18.119Z,101004.33
2019-05-11T08:10:48.306Z,101013.39
2019-05-11T08:13:17.902Z,101011.70
2019-05-11T08:15:48.841Z,101006.73
2019-05-11T08:18:18.920Z,101020.55
2019-05-11T08:20:47.944Z,101014.56
2019-05-11T08:23:18.081Z,101008.86
2019-05-11T08:25:48.631Z,101012.47
2019-05-11T08:28:18.303Z,101008.14
2019-05-11T08:30:48.668Z,101013.39
2019-05-11T08:33:18.226Z,101006.97
2019-05-11T08:35:48.072Z,101008.05
2019-05-11T08:38:58.507Z,101008.61
2019-05-11T08:41:28.062Z,101009.41
2019-05-11T08:43:58.692Z,101015.47
2019-05-11T08:46:28.076Z,101013.42
2019-05-11T08:48:59.490Z,101007.72
2019-05-11T08:51:28.102Z,101012.34
2019-05-11T08:53:58.348Z,101005.54
2019-05-11T08:56:28.956Z,101002.95
2019-05-11T08:58:58.807Z,101004.61
2019-05-11T09:01:28.689Z,101007.42
2019-05-11T09:03:58.382Z,101018.36
2019-05-11T09:06:28.388Z,101014.64
2019-05-11T09:08:58.323Z,101024.42
2019-05-11T09:11:28.365Z,101019.59
2019-05-11T09:13:57.906Z,101029.83
2019-05-11T09:16:29.060Z,101026.39
2019-05-11T09:18:58.094Z,101029.13
2019-05-11T09:21:28.133Z,101019.75
2019-05-11T09:23:57.988Z,101018.70
2019-05-11T09:26:28.454Z,101026.67
2019-05-11T09:28:58.168Z,101033.35
2019-05-11T09:31:27.922Z,101025.95
2019-05-11T09:33:58.442Z,101029.76
2019-05-11T09:36:28.355Z,101033.82
2019-05-11T09:38:58.151Z,101038.05
2019-05-11T09:41:28.768Z,101040.58
2019-05-11T09:43:58.591Z,101030.72
2019-05-11T09:46:27.868Z,101032.41
2019-05-11T09:48:58.809Z,101028.36
2019-05-11T09:51:28.585Z,101033.09
2019-05-11T09:53:58.609Z,101039.70
2019-05-11T09:56:28.675Z,101032.26
2019-05-11T09:58:58.181Z,101043.29
2019-05-11T10:01:26.352Z,101039.20
2019-05-11T10:03:54.618Z,101036.89
2019-05-11T10:06:22.895Z,101037.32
2019-05-11T10:08:51.154Z,101042.28
2019-05-11T10:11:19.431Z,101035.64
2019-05-11T10:13:47.939Z,101049.72
2019-05-11T10:16:17.952Z,101042.50
2019-05-11T10:18:48.893Z,101043.08
2019-05-11T10:21:18.557Z,101048.67
2019-05-11T10:23:48.651Z,101047.59
2019-05-11T10:26:18.412Z,101053.63
2019-05-11T10:28:48.128Z,101040.51
2019-05-11T10:31:18.093Z,101045.94
2019-05-11T10:33:48.670Z,101034.36
2019-05-11T10:36:18.586Z,101042.80
2019-05-11T10:38:48.434Z,101053.84
2019-05-11T10:41:18.045Z,101044.02
2019-05-11T10:43:48.627Z,101060.50
2019-05-11T10:46:22.509Z,101055.13
2019-05-11T10:48:48.355Z,101057.84
2019-05-11T10:51:18.323Z,101064.07
2019-05-11T10:53:49.526Z,101070.28
2019-05-11T10:56:17.843Z,101057.11
2019-05-11T10:58:48.198Z,101053.69
2019-05-11T11:01:18.185Z,101055.65
2019-05-11T11:03:48.398Z,101049.22
2019-05-11T11:06:18.601Z,101050.63
2019-05-11T11:08:48.422Z,101051.42
2019-05-11T11:11:18.399Z,101053.26
2019-05-11T11:13:47.998Z,101037.89
2019-05-11T11:16:32.710Z,101045.72
2019-05-11T11:18:48.502Z,101038.11
2019-05-11T11:21:21.715Z,101046.67
2019-05-11T11:23:48.012Z,101032.86
2019-05-11T11:26:18.241Z,101034.97
2019-05-11T11:28:47.720Z,101043.80
2019-05-11T11:31:18.386Z,101045.96
2019-05-11T11:33:48.627Z,101046.12
2019-05-11T11:36:17.871Z,101044.04
2019-05-11T11:38:47.759Z,101048.45
2019-05-11T11:41:18.642Z,101052.73
2019-05-11T11:43:48.418Z,101044.75
2019-05-11T11:46:18.562Z,101042.50
2019-05-11T11:48:48.555Z,101052.78
2019-05-11T11:51:18.530Z,101041.99
2019-05-11T11:53:47.724Z,101064.70
2019-05-11T11:56:18.852Z,101063.95
2019-05-11T11:58:48.523Z,101072.03
2019-05-11T12:01:18.654Z,101064.66
2019-05-11T12:03:48.486Z,101072.08
2019-05-11T12:06:18.258Z,101064.98
2019-05-11T12:08:46.205Z,101056.48
2019-05-11T12:11:14.468Z,101057.56
2019-05-11T12:13:43.657Z,101075.64
2019-05-11T12:16:11.920Z,101077.67
2019-05-11T12:18:40.191Z,101070.34
2019-05-11T12:21:08.445Z,101054.83
2019-05-11T12:23:38.140Z,101072.13
2019-05-11T12:26:08.507Z,101067.05
2019-05-11T12:28:38.196Z,101062.84
2019-05-11T12:31:08.632Z,101067.37
2019-05-11T12:33:38.561Z,101069.16
2019-05-11T12:36:07.986Z,101069.67
2019-05-11T12:38:38.222Z,101070.63
2019-05-11T12:41:08.806Z,101071.44
2019-05-11T12:43:38.152Z,101080.52
2019-05-11T12:46:08.007Z,101083.12
2019-05-11T12:48:37.929Z,101075.42
2019-05-11T12:51:08.045Z,101083.06
2019-05-11T12:53:38.462Z,101083.30
2019-05-11T12:56:08.279Z,101091.04
2019-05-11T12:58:36.689Z,101087.73
2019-05-11T13:01:04.982Z,101079.12
2019-05-11T13:03:33.261Z,101088.63
2019-05-11T13:06:01.530Z,101076.00
2019-05-11T13:08:29.812Z,101095.75
2019-05-11T13:10:58.517Z,101088.63
2019-05-11T13:13:28.615Z,101103.27
2019-05-11T13:15:58.521Z,101095.63
2019-05-11T13:18:28.094Z,101107.00
2019-05-11T13:20:58.618Z,101099.38
2019-05-11T13:23:27.822Z,101117.39
2019-05-11T13:25:58.375Z,101119.13
2019-05-11T13:28:28.256Z,101107.25
2019-05-11T13:30:57.999Z,101114.72
2019-05-11T13:33:28.028Z,101112.18
2019-05-11T13:35:57.919Z,101123.01
2019-05-11T13:38:28.345Z,101122.52
2019-05-11T13:40:58.433Z,101118.07
2019-05-11T13:43:28.054Z,101129.67
2019-05-11T13:45:58.455Z,101112.38
2019-05-11T13:48:28.127Z,101123.53
2019-05-11T13:50:58.200Z,101126.66
2019-05-11T13:53:27.599Z,101127.68
2019-05-11T13:55:58.533Z,101129.38
2019-05-11T13:58:27.784Z,101127.23
2019-05-11T14:00:58.543Z,101128.37
2019-05-11T14:03:27.680Z,101118.27
2019-05-11T14:05:58.188Z,101119.30
2019-05-11T14:08:27.821Z,101134.71
2019-05-11T14:10:58.050Z,101128.80
2019-05-11T14:13:28.578Z,101138.30
2019-05-11T14:15:58.625Z,101137.67
2019-05-11T14:18:28.230Z,101138.80
2019-05-11T14:20:58.552Z,101137.92
2019-05-11T14:23:29.121Z,101151.63
2019-05-11T14:25:57.635Z,101136.41
2019-05-11T14:28:28.507Z,101159.73
2019-05-11T14:30:57.889Z,101159.06
2019-05-11T14:33:28.313Z,101163.10
2019-05-11T14:35:57.823Z,101158.73
2019-05-11T14:38:28.241Z,101166.16
2019-05-11T14:40:58.553Z,101169.89
2019-05-11T14:43:27.758Z,101176.58
2019-05-11T14:45:57.833Z,101179.80
2019-05-11T14:48:29.875Z,101170.05
2019-05-11T14:50:59.086Z,101188.98
2019-05-11T14:53:28.336Z,101195.52
2019-05-11T14:55:58.480Z,101197.97
2019-05-11T14:58:28.049Z,101202.20
2019-05-11T15:00:58.350Z,101192.20
2019-05-11T15:03:28.767Z,101215.73
2019-05-11T15:05:58.251Z,101220.01
2019-05-11T15:08:28.588Z,101212.06
2019-05-11T15:10:57.663Z,101209.48
2019-05-11T15:13:28.664Z,101215.30
2019-05-11T15:15:58.537Z,101220.31
2019-05-11T15:18:37.931Z,101221.88
2019-05-11T15:20:58.068Z,101216.87
2019-05-11T15:25:55.706Z,101230.41
2019-05-11T15:28:23.967Z,101225.34
2019-05-11T15:30:52.313Z,101236.80
2019-05-11T15:33:20.599Z,101226.64
2019-05-11T15:35:48.874Z,101240.50
2019-05-11T15:38:17.825Z,101239.12
2019-05-11T15:40:48.740Z,101245.14
2019-05-11T15:43:17.949Z,101248.50
2019-05-11T15:45:48.722Z,101236.51
2019-05-11T15:48:18.722Z,101253.98
2019-05-11T15:50:48.596Z,101261.67
2019-05-11T15:53:17.812Z,101260.37
2019-05-11T15:56:21.204Z,101265.70
2019-05-11T15:58:49.491Z,101266.16
2019-05-11T16:01:18.569Z,101279.12
2019-05-11T16:03:49.997Z,101274.42
2019-05-11T16:06:18.580Z,101276.24
2019-05-11T16:08:47.760Z,101284.06
2019-05-11T16:11:18.106Z,101286.61
2019-05-11T16:13:48.204Z,101279.48
2019-05-11T16:16:16.036Z,101281.81
2019-05-11T16:18:44.320Z,101296.66
2019-05-11T16:21:12.592Z,101295.70
2019-05-11T16:23:41.258Z,101292.42
2019-05-11T16:26:09.520Z,101293.41
2019-05-11T16:28:38.385Z,101299.72
2019-05-11T16:31:09.132Z,101295.20
2019-05-11T16:33:38.506Z,101301.27
2019-05-11T16:36:09.065Z,101311.56
2019-05-11T16:38:38.003Z,101304.91
2019-05-11T16:41:08.953Z,101320.20
2019-05-11T16:43:38.532Z,101310.80
2019-05-11T16:46:08.666Z,101310.84
2019-05-11T16:48:38.291Z,101322.23
2019-05-11T16:51:08.683Z,101326.60
2019-05-11T16:53:38.799Z,101324.52
2019-05-11T16:56:08.368Z,101326.80
2019-05-11T16:58:40.653Z,101327.89
2019-05-11T17:01:08.641Z,101332.63
2019-05-11T17:03:38.484Z,101344.03
2019-05-11T17:06:08.364Z,101325.56
2019-05-11T17:08:38.396Z,101338.86
2019-05-11T17:11:08.220Z,101347.92
2019-05-11T17:13:38.022Z,101325.68
2019-05-11T17:16:08.609Z,101339.19
2019-05-11T17:18:36.944Z,101357.92
2019-05-11T17:21:07.615Z,101347.83
2019-05-11T17:23:35.286Z,101369.66
2019-05-11T17:26:03.563Z,101364.13
2019-05-11T17:28:31.832Z,101366.95
2019-05-11T17:31:02.951Z,101373.90
2019-05-11T17:33:30.107Z,101385.87
2019-05-11T17:35:58.826Z,101377.09
2019-05-11T17:38:28.357Z,101384.42
2019-05-11T17:40:57.715Z,101386.05
2019-05-11T17:43:28.133Z,101389.14
2019-05-11T17:45:58.489Z,101399.38
2019-05-11T17:48:28.179Z,101390.04
2019-05-11T17:50:58.146Z,101409.42
2019-05-11T17:53:28.576Z,101406.72
2019-05-11T17:55:57.829Z,101400.50
2019-05-11T17:58:26.695Z,101408.84
2019-05-11T18:00:54.966Z,101405.95
2019-05-11T18:03:23.241Z,101408.19
2019-05-11T18:05:51.517Z,101419.72
2019-05-11T18:08:19.792Z,101426.56
2019-05-11T18:10:48.074Z,101422.50
2019-05-11T18:13:16.353Z,101423.96
2019-05-11T18:15:44.622Z,101423.91
2019-05-11T18:18:12.906Z,101424.00
2019-05-11T18:20:41.170Z,101432.92
2019-05-11T18:23:09.442Z,101437.25
2019-05-11T18:25:38.982Z,101441.79
2019-05-11T18:28:07.710Z,101451.07
2019-05-11T18:30:35.971Z,101459.39
2019-05-11T18:33:04.244Z,101455.73
2019-05-11T18:36:12.559Z,101456.27
2019-05-11T18:38:40.821Z,101457.33
2019-05-11T18:41:09.084Z,101472.05
2019-05-11T18:43:38.212Z,101472.41
2019-05-11T18:46:08.509Z,101472.62
2019-05-11T18:48:38.071Z,101482.53
2019-05-11T18:51:08.542Z,101491.37
2019-05-11T18:53:36.666Z,101489.42
2019-05-11T18:56:04.942Z,101493.27
2019-05-11T18:58:33.212Z,101485.29
2019-05-11T19:01:01.498Z,101489.66
2019-05-11T19:03:29.774Z,101495.85
2019-05-11T19:05:58.036Z,101499.74
2019-05-11T19:08:27.937Z,101496.00
2019-05-11T19:10:58.014Z,101508.43
2019-05-11T19:13:28.166Z,101517.66
2019-05-11T19:15:58.392Z,101524.10
2019-05-11T19:18:28.208Z,101535.98
2019-05-11T19:20:58.634Z,101536.30
2019-05-11T19:23:28.469Z,101546.69
2019-05-11T19:25:57.895Z,101556.91
2019-05-11T19:28:28.138Z,101570.64
2019-05-11T19:30:56.346Z,101578.94
2019-05-11T19:33:24.624Z,101583.79
2019-05-11T19:35:52.908Z,101584.12
2019-05-11T19:38:21.565Z,101594.84
2019-05-11T19:40:49.836Z,101600.08
2019-05-11T19:43:18.713Z,101601.38
2019-05-11T19:45:48.697Z,101598.63
2019-05-11T19:48:18.105Z,101600.66
2019-05-11T19:51:00.921Z,101608.32
2019-05-11T19:53:18.631Z,101606.89
2019-05-11T19:55:47.911Z,101613.37
2019-05-11T19:58:19.209Z,101616.23
2019-05-11T20:00:48.653Z,101626.19
2019-05-11T20:03:18.218Z,101635.21
2019-05-11T20:05:48.353Z,101632.40
2019-05-11T20:08:18.265Z,101640.46
2019-05-11T20:10:48.501Z,101641.31
2019-05-11T20:13:17.903Z,101643.87
2019-05-11T20:15:48.349Z,101644.44
2019-05-11T20:18:29.216Z,101648.62
2019-05-11T20:20:57.479Z,101648.62
2019-05-11T20:23:25.761Z,101651.45
2019-05-11T20:29:02.082Z,101658.41
2019-05-11T20:31:30.352Z,101662.86
2019-05-11T20:33:59.293Z,101660.11
2019-05-11T20:36:27.556Z,101667.39
2019-05-11T20:38:55.843Z,101679.64
2019-05-11T20:41:24.116Z,101684.70
2019-05-11T20:43:52.417Z,101690.55
2019-05-11T20:46:20.689Z,101693.83
2019-05-11T20:48:48.948Z,101692.05
2019-05-11T20:51:32.850Z,101698.48
2019-05-11T20:53:48.967Z,101704.42
2019-05-11T20:56:17.796Z,101704.78
2019-05-11T20:59:07.860Z,101708.30
2019-05-11T21:01:55.432Z,101712.21
2019-05-11T21:04:23.700Z,101712.31
2019-05-11T21:06:51.985Z,101715.48
2019-05-11T21:09:20.248Z,101721.89
2019-05-11T21:11:48.506Z,101726.66
2019-05-11T21:14:18.188Z,101728.39
2019-05-11T21:16:47.855Z,101731.84
2019-05-11T21:19:18.811Z,101733.06
2019-05-11T21:21:53.239Z,101739.41
2019-05-11T21:24:18.741Z,101743.05
2019-05-11T21:26:47.947Z,101745.34
2019-05-11T21:29:31.380Z,101747.36
2019-05-11T21:31:59.125Z,101757.03
2019-05-11T21:34:28.531Z,101750.16
2019-05-11T21:36:56.787Z,101746.70
2019-05-11T21:39:25.079Z,101755.67
2019-05-11T21:41:53.345Z,101748.08
2019-05-11T21:44:21.600Z,101753.02
2019-05-11T21:46:49.866Z,101749.52
2019-05-11T21:49:18.574Z,101765.03
2019-05-11T21:51:56.757Z,101766.89
2019-05-11T21:54:18.103Z,101773.22
2019-05-11T21:56:48.754Z,101774.03
2019-05-11T21:59:18.265Z,101787.95
2019-05-11T22:01:48.544Z,101789.34
2019-05-11T22:04:18.998Z,101805.59
2019-05-11T22:06:48.351Z,101805.14
2019-05-11T22:09:18.407Z,101802.09
2019-05-11T22:11:48.531Z,101803.26
2019-05-11T22:14:16.248Z,101809.36
2019-05-11T22:16:44.531Z,101802.19
2019-05-11T22:19:12.798Z,101806.40
2019-05-11T22:21:41.063Z,101804.73
2019-05-11T22:24:09.344Z,101802.98
2019-05-11T22:26:38.042Z,101808.52
2019-05-11T22:29:07.957Z,101809.67
2019-05-11T22:31:38.299Z,101818.56
2019-05-11T22:34:08.920Z,101827.17
2019-05-11T22:36:38.561Z,101826.14
2019-05-11T22:39:49.477Z,101837.11
2019-05-11T22:42:18.422Z,101839.64
2019-05-11T22:44:48.360Z,101839.81
2019-05-11T22:47:17.930Z,101847.73
2019-05-11T22:49:49.625Z,101846.05
2019-05-11T22:52:18.038Z,101851.50
2019-05-11T22:54:48.471Z,101854.85
2019-05-11T22:57:17.495Z,101859.50
2019-05-11T22:59:45.771Z,101860.42
2019-05-11T23:02:14.025Z,101860.52
2019-05-11T23:04:42.279Z,101864.42
2019-05-11T23:07:10.563Z,101871.13
2019-05-11T23:09:38.823Z,101870.39
2019-05-11T23:12:09.020Z,101876.98
2019-05-11T23:14:37.700Z,101880.09
2019-05-11T23:17:08.105Z,101879.75
2019-05-11T23:19:38.164Z,101886.45
2019-05-11T23:22:08.292Z,101884.06
2019-05-11T23:24:37.102Z,101884.48
2019-05-11T23:27:07.858Z,101894.50
2019-05-11T23:29:35.364Z,101903.02
2019-05-11T23:32:03.628Z,101905.20
2019-05-11T23:34:31.891Z,101904.10
2019-05-11T23:37:00.166Z,101897.33
2019-05-11T23:39:28.419Z,101908.10
2019-05-11T23:41:58.632Z,101908.69
2019-05-11T23:44:26.663Z,101912.00
2019-05-11T23:46:54.922Z,101914.55
2019-05-11T23:49:23.201Z,101915.80
2019-05-11T23:51:51.468Z,101911.23
2019-05-11T23:54:19.730Z,101919.96
2019-05-11T23:56:48.028Z,101923.00
2019-05-11T23:59:18.641Z,101922.98
